createdAt,value
2019-03-17T00:01:35.782Z,4.87
2019-03-17T00:04:04.482Z,3.80
2019-03-17T00:06:33.164Z,6.85
2019-03-17T00:09:01.763Z,3.35
2019-03-17T00:11:30.792Z,4.37
2019-03-17T00:13:59.381Z,5.50
2019-03-17T00:16:27.932Z,7.67
2019-03-17T00:18:56.521Z,5.30
2019-03-17T00:21:25.090Z,3.90
2019-03-17T00:23:53.693Z,4.22
2019-03-17T00:26:22.243Z,3.67
2019-03-17T00:28:50.791Z,4.42
2019-03-17T00:31:24.226Z,2.75
2019-03-17T00:33:49.917Z,4.08
2019-03-17T00:36:18.651Z,9.85
2019-03-17T00:38:47.299Z,4.37
2019-03-17T00:41:15.861Z,4.97
2019-03-17T00:43:44.421Z,12.40
2019-03-17T00:46:13.073Z,4.80
2019-03-17T00:48:41.899Z,7.15
2019-03-17T00:51:10.631Z,3.75
2019-03-17T00:53:39.297Z,6.05
2019-03-17T00:56:07.947Z,5.53
2019-03-17T00:58:36.508Z,4.12
2019-03-17T01:01:05.152Z,3.33
2019-03-17T01:03:33.751Z,3.42
2019-03-17T01:06:02.434Z,4.40
2019-03-17T01:08:30.979Z,4.60
2019-03-17T01:10:59.547Z,2.20
2019-03-17T01:13:28.208Z,7.17
2019-03-17T01:15:56.763Z,4.08
2019-03-17T01:18:25.796Z,5.20
2019-03-17T01:20:54.498Z,5.40
2019-03-17T01:23:23.042Z,3.80
2019-03-17T01:25:51.616Z,4.53
2019-03-17T01:28:20.411Z,6.22
2019-03-17T01:30:49.122Z,4.87
2019-03-17T01:33:17.916Z,5.00
2019-03-17T01:35:46.476Z,4.60
2019-03-17T01:38:15.268Z,6.08
2019-03-17T01:40:43.912Z,2.00
2019-03-17T01:43:12.552Z,3.30
2019-03-17T01:45:41.133Z,5.08
2019-03-17T01:48:09.738Z,5.22
2019-03-17T01:50:38.287Z,4.90
2019-03-17T01:53:07.016Z,5.70
2019-03-17T01:55:35.599Z,3.08
2019-03-17T01:58:04.168Z,4.53
2019-03-17T02:00:33.160Z,3.15
2019-03-17T02:03:01.732Z,4.05
2019-03-17T02:05:30.681Z,3.92
2019-03-17T02:07:59.392Z,2.85
2019-03-17T02:10:27.974Z,5.10
2019-03-17T02:12:56.526Z,4.50
2019-03-17T02:15:25.092Z,3.55
2019-03-17T02:17:53.645Z,5.28
2019-03-17T02:20:22.207Z,1.82
2019-03-17T02:22:50.781Z,4.75
2019-03-17T02:25:19.632Z,4.30
2019-03-17T02:27:49.232Z,4.62
2019-03-17T02:30:17.874Z,5.25
2019-03-17T02:32:46.464Z,5.25
2019-03-17T02:35:15.080Z,3.35
2019-03-17T02:37:43.840Z,5.08
2019-03-17T02:40:12.683Z,5.60
2019-03-17T02:42:41.220Z,3.12
2019-03-17T02:45:09.996Z,3.75
2019-03-17T02:47:38.606Z,4.35
2019-03-17T02:50:07.663Z,4.22
2019-03-17T02:52:36.367Z,4.00
2019-03-17T02:55:05.352Z,9.83
2019-03-17T02:57:34.132Z,7.53
2019-03-17T03:00:03.716Z,3.35
2019-03-17T03:02:32.336Z,4.83
2019-03-17T03:05:01.129Z,5.78
2019-03-17T03:07:29.802Z,6.22
2019-03-17T03:09:58.382Z,4.25
2019-03-17T03:12:27.073Z,6.00
2019-03-17T03:14:55.806Z,4.87
2019-03-17T03:17:24.720Z,4.92
2019-03-17T03:19:53.314Z,10.32
2019-03-17T03:22:21.959Z,9.35
2019-03-17T03:24:50.557Z,5.15
2019-03-17T03:27:19.121Z,4.58
2019-03-17T03:29:47.657Z,4.15
2019-03-17T03:32:16.680Z,10.45
2019-03-17T03:34:45.355Z,11.83
2019-03-17T03:37:14.217Z,8.68
2019-03-17T03:39:42.963Z,6.75
2019-03-17T03:42:11.737Z,6.12
2019-03-17T03:44:40.313Z,9.48
2019-03-17T03:47:08.967Z,7.37
2019-03-17T03:49:37.517Z,6.10
2019-03-17T03:52:06.093Z,6.00
2019-03-17T03:54:34.689Z,6.12
2019-03-17T03:57:03.606Z,13.83
2019-03-17T03:59:32.266Z,6.10
2019-03-17T04:02:00.849Z,5.12
2019-03-17T04:04:29.604Z,6.40
2019-03-17T04:06:58.264Z,9.10
2019-03-17T04:09:26.925Z,7.92
2019-03-17T04:11:55.491Z,8.88
2019-03-17T04:14:24.036Z,10.30
2019-03-17T04:16:52.703Z,7.55
2019-03-17T04:19:21.380Z,6.85
2019-03-17T04:21:49.941Z,11.22
2019-03-17T04:24:18.645Z,6.37
2019-03-17T04:26:47.306Z,12.35
2019-03-17T04:29:15.866Z,10.88
2019-03-17T04:31:44.481Z,10.55
2019-03-17T04:34:13.006Z,7.42
2019-03-17T04:36:41.660Z,10.48
2019-03-17T04:39:10.236Z,10.13
2019-03-17T04:41:38.788Z,13.70
2019-03-17T04:44:07.495Z,9.90
2019-03-17T04:46:36.334Z,11.43
2019-03-17T04:49:05.016Z,9.03
2019-03-17T04:51:33.589Z,9.45
2019-03-17T04:54:02.175Z,11.35
2019-03-17T04:56:30.869Z,10.60
2019-03-17T04:58:59.419Z,9.85
2019-03-17T05:01:28.287Z,11.45
2019-03-17T05:03:56.999Z,15.43
2019-03-17T05:06:25.569Z,7.15
2019-03-17T05:08:54.396Z,8.73
2019-03-17T05:11:22.951Z,10.20
2019-03-17T05:13:51.497Z,11.55
2019-03-17T05:16:20.071Z,5.25
2019-03-17T05:18:48.707Z,8.30
2019-03-17T05:21:17.260Z,7.22
2019-03-17T05:23:45.827Z,11.68
2019-03-17T05:26:14.383Z,10.53
2019-03-17T05:28:42.952Z,13.22
2019-03-17T05:31:11.558Z,12.53
2019-03-17T05:33:40.098Z,14.18
2019-03-17T05:36:08.696Z,10.55
2019-03-17T05:38:37.255Z,8.40
2019-03-17T05:41:05.815Z,12.68
2019-03-17T05:43:34.468Z,16.70
2019-03-17T05:46:03.140Z,9.63
2019-03-17T05:48:31.795Z,10.08
2019-03-17T05:51:00.349Z,6.28
2019-03-17T05:53:29.061Z,6.55
2019-03-17T05:55:57.738Z,10.05
2019-03-17T05:58:26.290Z,11.83
2019-03-17T06:00:55.046Z,14.25
2019-03-17T06:03:23.595Z,11.95
2019-03-17T06:05:52.181Z,14.55
2019-03-17T06:08:20.800Z,11.83
2019-03-17T06:10:49.347Z,8.78
2019-03-17T06:13:17.896Z,16.85
2019-03-17T06:15:46.503Z,7.37
2019-03-17T06:18:15.069Z,8.65
2019-03-17T06:20:43.629Z,15.70
2019-03-17T06:23:12.263Z,8.75
2019-03-17T06:25:40.792Z,14.70
2019-03-17T06:28:09.326Z,13.15
2019-03-17T06:30:37.890Z,12.23
2019-03-17T06:33:06.447Z,11.40
2019-03-17T06:35:35.066Z,13.13
2019-03-17T06:38:03.747Z,11.85
2019-03-17T06:40:32.312Z,4.85
2019-03-17T06:43:00.955Z,10.95
2019-03-17T06:45:29.627Z,14.15
2019-03-17T06:47:58.185Z,10.63
2019-03-17T06:50:26.733Z,13.98
2019-03-17T06:52:55.416Z,6.37
2019-03-17T06:55:23.966Z,9.70
2019-03-17T06:57:52.539Z,13.90
2019-03-17T07:00:21.112Z,5.95
2019-03-17T07:02:49.886Z,11.70
2019-03-17T07:05:18.419Z,10.98
2019-03-17T07:07:47.104Z,8.65
2019-03-17T07:10:15.688Z,11.20
2019-03-17T07:12:44.448Z,7.75
2019-03-17T07:15:13.231Z,14.25
2019-03-17T07:17:41.971Z,6.33
2019-03-17T07:20:10.723Z,13.13
2019-03-17T07:22:39.502Z,15.10
2019-03-17T07:25:08.464Z,11.97
2019-03-17T07:27:37.013Z,12.60
2019-03-17T07:30:06.832Z,13.25
2019-03-17T07:32:35.383Z,11.65
2019-03-17T07:35:04.444Z,8.03
2019-03-17T07:37:33.113Z,4.83
2019-03-17T07:40:01.932Z,4.85
2019-03-17T07:42:32.562Z,4.55
2019-03-17T07:45:01.109Z,3.10
2019-03-17T07:47:29.764Z,1.30
2019-03-17T07:49:58.308Z,3.80
2019-03-17T07:52:26.990Z,1.87
2019-03-17T07:54:55.523Z,2.87
2019-03-17T07:57:24.187Z,2.52
2019-03-17T07:59:52.855Z,2.60
2019-03-17T08:02:21.517Z,1.67
2019-03-17T08:04:50.180Z,2.55
2019-03-17T08:07:19.468Z,5.05
2019-03-17T08:09:48.233Z,1.80
2019-03-17T08:12:16.797Z,2.17
2019-03-17T08:14:45.378Z,2.12
2019-03-17T08:17:14.054Z,2.37
2019-03-17T08:19:42.709Z,2.02
2019-03-17T08:22:11.387Z,2.85
2019-03-17T08:24:39.922Z,3.40
2019-03-17T08:27:08.483Z,3.10
2019-03-17T08:29:37.066Z,5.05
2019-03-17T08:32:05.843Z,2.92
2019-03-17T08:34:34.405Z,3.33
2019-03-17T08:37:03.235Z,4.33
2019-03-17T08:39:31.898Z,2.33
2019-03-17T08:42:00.472Z,3.08
2019-03-17T08:44:29.058Z,2.80
2019-03-17T08:46:57.607Z,2.83
2019-03-17T08:49:26.165Z,3.58
2019-03-17T08:51:54.896Z,2.15
2019-03-17T08:54:23.433Z,1.52
2019-03-17T08:56:51.980Z,2.25
2019-03-17T08:59:20.555Z,3.45
2019-03-17T09:01:49.101Z,1.77
2019-03-17T09:04:17.876Z,5.15
2019-03-17T09:06:46.681Z,3.35
2019-03-17T09:09:15.375Z,3.10
2019-03-17T09:11:43.928Z,2.47
2019-03-17T09:14:12.484Z,3.98
2019-03-17T09:16:41.041Z,5.05
2019-03-17T09:19:09.572Z,5.10
2019-03-17T09:21:38.235Z,8.05
2019-03-17T09:24:16.728Z,4.83
2019-03-17T09:26:37.287Z,4.42
2019-03-17T09:29:05.836Z,2.87
2019-03-17T09:31:34.415Z,2.55
2019-03-17T09:34:03.148Z,4.17
2019-03-17T09:36:32.548Z,4.05
2019-03-17T09:39:01.410Z,5.05
2019-03-17T09:41:30.215Z,8.75
2019-03-17T09:43:58.797Z,6.97
2019-03-17T09:46:27.462Z,7.25
2019-03-17T09:48:56.045Z,4.90
2019-03-17T09:51:24.731Z,7.45
2019-03-17T09:53:53.284Z,10.80
2019-03-17T09:56:21.968Z,4.47
2019-03-17T09:58:50.566Z,4.17
2019-03-17T10:01:19.111Z,5.95
2019-03-17T10:03:47.964Z,7.72
2019-03-17T10:06:16.541Z,7.95
2019-03-17T10:08:45.096Z,8.90
2019-03-17T10:11:13.685Z,6.95
2019-03-17T10:13:42.326Z,7.40
2019-03-17T10:16:10.869Z,7.53
2019-03-17T10:18:39.456Z,11.25
2019-03-17T10:21:08.127Z,7.12
2019-03-17T10:23:36.804Z,8.23
2019-03-17T10:26:05.523Z,6.55
2019-03-17T10:28:35.291Z,7.00
2019-03-17T10:31:04.067Z,9.75
2019-03-17T10:33:32.734Z,8.93
2019-03-17T10:36:01.408Z,8.70
2019-03-17T10:38:29.986Z,7.22
2019-03-17T10:40:58.535Z,7.05
2019-03-17T10:43:27.101Z,6.87
2019-03-17T10:45:55.716Z,9.63
2019-03-17T10:48:24.269Z,9.70
2019-03-17T10:50:52.931Z,5.00
2019-03-17T10:53:21.542Z,2.52
2019-03-17T10:55:50.098Z,2.20
2019-03-17T10:58:19.021Z,3.08
2019-03-17T11:00:47.554Z,4.03
2019-03-17T11:03:16.118Z,2.70
2019-03-17T11:05:44.785Z,8.63
2019-03-17T11:08:13.638Z,1.80
2019-03-17T11:10:42.207Z,1.87
2019-03-17T11:13:10.845Z,5.05
2019-03-17T11:15:39.410Z,1.57
2019-03-17T11:18:07.971Z,0.95
2019-03-17T11:20:36.529Z,0.98
2019-03-17T11:23:05.303Z,0.80
2019-03-17T11:25:33.864Z,3.75
2019-03-17T11:28:02.568Z,0.68
2019-03-17T11:30:31.317Z,0.82
2019-03-17T11:32:59.861Z,2.85
2019-03-17T11:35:28.455Z,3.75
2019-03-17T11:37:57.055Z,1.75
2019-03-17T11:40:25.605Z,2.05
2019-03-17T11:42:54.288Z,1.20
2019-03-17T11:45:22.843Z,3.20
2019-03-17T11:47:51.795Z,7.10
2019-03-17T11:50:20.566Z,1.40
2019-03-17T11:52:49.517Z,1.15
2019-03-17T11:55:18.461Z,1.30
2019-03-17T11:57:47.265Z,2.20
2019-03-17T12:00:16.023Z,2.20
2019-03-17T12:02:44.792Z,0.85
2019-03-17T12:05:13.589Z,2.83
2019-03-17T12:07:42.339Z,1.62
2019-03-17T12:10:12.072Z,1.65
2019-03-17T12:12:40.845Z,2.67
2019-03-17T12:15:11.597Z,1.12
2019-03-17T12:17:40.176Z,1.07
2019-03-17T12:20:09.493Z,1.72
2019-03-17T12:22:38.158Z,2.10
2019-03-17T12:25:11.478Z,1.62
2019-03-17T12:27:39.363Z,2.95
2019-03-17T12:30:13.318Z,0.20
2019-03-17T12:32:42.045Z,1.82
2019-03-17T12:35:10.633Z,2.27
2019-03-17T12:37:39.285Z,2.35
2019-03-17T12:40:08.073Z,1.17
2019-03-17T12:42:36.725Z,1.17
2019-03-17T12:45:06.080Z,1.47
2019-03-17T12:47:37.214Z,3.08
2019-03-17T12:50:05.389Z,2.65
2019-03-17T12:52:34.067Z,2.17
2019-03-17T12:55:03.267Z,0.90
2019-03-17T12:57:31.962Z,2.70
2019-03-17T13:00:00.564Z,4.87
2019-03-17T13:02:29.836Z,1.25
2019-03-17T13:04:58.614Z,0.70
2019-03-17T13:07:27.380Z,2.85
2019-03-17T13:09:55.965Z,0.65
2019-03-17T13:12:24.514Z,2.02
2019-03-17T13:14:53.071Z,2.67
2019-03-17T13:17:21.727Z,1.15
2019-03-17T13:19:50.313Z,1.27
2019-03-17T13:22:18.931Z,0.70
2019-03-17T13:24:47.533Z,3.20
2019-03-17T13:27:16.039Z,2.92
2019-03-17T13:29:44.603Z,3.02
2019-03-17T13:32:13.291Z,2.02
2019-03-17T13:34:41.851Z,2.35
2019-03-17T13:37:10.391Z,1.20
2019-03-17T13:39:38.971Z,5.03
2019-03-17T13:42:07.622Z,3.10
2019-03-17T13:44:36.192Z,2.70
2019-03-17T13:47:04.864Z,0.95
2019-03-17T13:49:33.525Z,6.45
2019-03-17T13:52:02.074Z,3.00
2019-03-17T13:54:30.816Z,3.00
2019-03-17T13:56:59.383Z,2.15
2019-03-17T13:59:27.972Z,2.15
2019-03-17T14:01:56.612Z,3.35
2019-03-17T14:04:25.621Z,6.05
2019-03-17T14:06:54.307Z,3.72
2019-03-17T14:09:22.917Z,6.72
2019-03-17T14:11:51.618Z,2.45
2019-03-17T14:14:20.169Z,2.50
2019-03-17T14:16:48.841Z,4.47
2019-03-17T14:19:17.609Z,3.42
2019-03-17T14:21:46.189Z,2.40
2019-03-17T14:24:14.778Z,1.57
2019-03-17T14:26:43.431Z,2.45
2019-03-17T14:29:12.104Z,4.62
2019-03-17T14:31:40.842Z,2.20
2019-03-17T14:34:09.428Z,1.52
2019-03-17T14:36:39.994Z,3.17
2019-03-17T14:39:08.572Z,3.08
2019-03-17T14:41:37.143Z,2.62
2019-03-17T14:44:05.899Z,3.47
2019-03-17T14:46:35.720Z,1.65
2019-03-17T14:49:04.555Z,2.47
2019-03-17T14:51:33.124Z,3.37
2019-03-17T14:54:01.748Z,0.28
2019-03-17T14:56:30.434Z,1.50
2019-03-17T14:58:59.124Z,1.50
2019-03-17T15:01:27.812Z,1.90
2019-03-17T15:03:56.467Z,3.75
2019-03-17T15:06:25.049Z,2.90
2019-03-17T15:08:53.748Z,2.70
2019-03-17T15:11:22.515Z,1.22
2019-03-17T15:13:51.650Z,2.15
2019-03-17T15:16:20.266Z,1.92
2019-03-17T15:18:49.203Z,1.87
2019-03-17T15:21:18.161Z,3.33
2019-03-17T15:23:47.050Z,2.15
2019-03-17T15:26:15.721Z,2.75
2019-03-17T15:28:44.291Z,4.35
2019-03-17T15:31:12.901Z,1.22
2019-03-17T15:33:41.479Z,3.72
2019-03-17T15:36:10.081Z,2.77
2019-03-17T15:38:38.805Z,8.35
2019-03-17T15:41:18.128Z,3.12
2019-03-17T15:43:37.940Z,1.37
2019-03-17T15:46:06.812Z,2.83
2019-03-17T15:48:35.562Z,1.10
2019-03-17T15:51:04.116Z,1.85
2019-03-17T15:53:32.722Z,2.42
2019-03-17T15:56:01.494Z,1.07
2019-03-17T15:58:30.231Z,1.82
2019-03-17T16:00:58.821Z,4.28
2019-03-17T16:03:27.490Z,1.15
2019-03-17T16:05:56.598Z,0.50
2019-03-17T16:08:25.411Z,4.10
2019-03-17T16:10:54.072Z,2.85
2019-03-17T16:13:23.154Z,5.15
2019-03-17T16:15:51.834Z,5.30
2019-03-17T16:18:20.489Z,0.80
2019-03-17T16:20:49.052Z,3.42
2019-03-17T16:23:18.034Z,9.93
2019-03-17T16:25:46.799Z,3.12
2019-03-17T16:28:15.456Z,7.35
2019-03-17T16:30:44.150Z,7.42
2019-03-17T16:33:12.824Z,1.85
2019-03-17T16:35:41.525Z,4.17
2019-03-17T16:38:10.235Z,2.90
2019-03-17T16:40:38.907Z,4.08
2019-03-17T16:43:07.586Z,5.62
2019-03-17T16:45:36.288Z,1.30
2019-03-17T16:48:04.963Z,3.22
2019-03-17T16:50:33.650Z,3.37
2019-03-17T16:53:02.332Z,3.65
2019-03-17T16:55:30.914Z,6.62
2019-03-17T16:57:59.502Z,5.97
2019-03-17T17:00:28.282Z,4.30
2019-03-17T17:02:56.881Z,2.58
2019-03-17T17:05:25.471Z,10.10
2019-03-17T17:07:54.744Z,2.42
2019-03-17T17:10:23.459Z,10.63
2019-03-17T17:12:52.293Z,2.75
2019-03-17T17:15:21.954Z,2.83
2019-03-17T17:17:50.896Z,7.08
2019-03-17T17:20:21.885Z,5.47
2019-03-17T17:22:51.180Z,4.67
2019-03-17T17:25:20.223Z,7.75
2019-03-17T17:27:49.020Z,2.30
2019-03-17T17:30:18.349Z,3.72
2019-03-17T17:32:47.031Z,9.83
2019-03-17T17:35:15.824Z,11.25
2019-03-17T17:37:44.383Z,9.08
2019-03-17T17:40:14.019Z,7.83
2019-03-17T17:42:42.765Z,12.23
2019-03-17T17:45:12.796Z,5.03
2019-03-17T17:47:41.459Z,4.15
2019-03-17T17:50:11.612Z,6.05
2019-03-17T17:52:40.430Z,7.85
2019-03-17T17:55:09.220Z,12.15
2019-03-17T17:57:37.799Z,5.53
2019-03-17T18:00:08.174Z,8.08
2019-03-17T18:02:36.832Z,10.72
2019-03-17T18:05:05.819Z,38.38
2019-03-17T18:07:34.416Z,15.43
2019-03-17T18:10:03.974Z,9.00
2019-03-17T18:12:32.738Z,7.97
2019-03-17T18:15:01.565Z,5.00
2019-03-17T18:17:30.225Z,7.72
2019-03-17T18:19:58.911Z,11.83
2019-03-17T18:22:27.485Z,4.60
2019-03-17T18:24:56.059Z,7.75
2019-03-17T18:27:24.762Z,6.72
2019-03-17T18:29:53.361Z,10.93
2019-03-17T18:32:21.932Z,5.47
2019-03-17T18:34:50.677Z,11.30
2019-03-17T18:37:19.499Z,7.20
2019-03-17T18:39:48.020Z,7.95
2019-03-17T18:42:16.718Z,5.92
2019-03-17T18:44:45.336Z,8.43
2019-03-17T18:47:13.896Z,6.62
2019-03-17T18:49:42.445Z,7.53
2019-03-17T18:52:11.051Z,2.15
2019-03-17T18:54:39.715Z,5.47
2019-03-17T18:57:08.286Z,5.92
2019-03-17T18:59:36.867Z,8.73
2019-03-17T19:02:06.035Z,11.40
2019-03-17T19:04:34.607Z,5.35
2019-03-17T19:07:03.396Z,2.45
2019-03-17T19:09:32.034Z,5.47
2019-03-17T19:12:00.795Z,3.60
2019-03-17T19:14:29.376Z,3.52
2019-03-17T19:16:57.929Z,3.45
2019-03-17T19:19:26.467Z,5.10
2019-03-17T19:21:55.062Z,8.60
2019-03-17T19:24:23.708Z,8.33
2019-03-17T19:26:52.279Z,6.00
2019-03-17T19:29:20.999Z,1.65
2019-03-17T19:31:49.582Z,4.42
2019-03-17T19:34:18.276Z,2.42
2019-03-17T19:36:46.945Z,2.95
2019-03-17T19:39:15.588Z,3.65
2019-03-17T19:41:44.155Z,5.83
2019-03-17T19:44:12.721Z,6.05
2019-03-17T19:46:41.282Z,7.20
2019-03-17T19:49:09.863Z,6.47
2019-03-17T19:51:38.442Z,6.87
2019-03-17T19:54:06.995Z,4.10
2019-03-17T19:56:35.764Z,4.90
2019-03-17T19:59:04.440Z,4.62
2019-03-17T20:01:33.108Z,9.48
2019-03-17T20:04:01.740Z,11.97
2019-03-17T20:06:30.316Z,4.67
2019-03-17T20:08:58.866Z,13.08
2019-03-17T20:11:27.631Z,9.60
2019-03-17T20:13:56.329Z,19.45
2019-03-17T20:16:24.912Z,18.07
2019-03-17T20:18:53.464Z,12.80
2019-03-17T20:21:22.136Z,10.23
2019-03-17T20:23:51.108Z,8.23
2019-03-17T20:26:19.661Z,8.43
2019-03-17T20:28:48.296Z,6.42
2019-03-17T20:31:16.960Z,4.00
2019-03-17T20:33:45.616Z,5.97
2019-03-17T20:36:14.627Z,6.50
2019-03-17T20:38:43.376Z,5.65
2019-03-17T20:41:12.045Z,3.87
2019-03-17T20:43:40.732Z,4.58
2019-03-17T20:46:09.272Z,5.70
2019-03-17T20:48:38.299Z,7.37
2019-03-17T20:51:06.973Z,10.48
2019-03-17T20:53:35.738Z,7.37
2019-03-17T20:56:04.711Z,6.95
2019-03-17T20:58:33.540Z,8.15
2019-03-17T21:01:02.164Z,6.83
2019-03-17T21:03:30.823Z,7.62
2019-03-17T21:05:59.504Z,8.58
2019-03-17T21:08:28.070Z,3.77
2019-03-17T21:10:56.750Z,7.72
2019-03-17T21:13:25.596Z,7.58
2019-03-17T21:15:54.262Z,8.18
2019-03-17T21:18:22.879Z,4.80
2019-03-17T21:20:51.628Z,7.05
2019-03-17T21:23:20.420Z,3.60
2019-03-17T21:25:48.970Z,4.42
2019-03-17T21:28:17.581Z,6.55
2019-03-17T21:30:46.310Z,8.15
2019-03-17T21:33:14.897Z,5.40
2019-03-17T21:35:43.526Z,5.85
2019-03-17T21:38:12.194Z,5.90
2019-03-17T21:41:01.238Z,4.45
2019-03-17T21:43:11.686Z,6.03
2019-03-17T21:45:40.318Z,11.33
2019-03-17T21:48:08.925Z,5.45
2019-03-17T21:50:37.482Z,10.85
2019-03-17T21:53:06.173Z,8.90
2019-03-17T21:55:34.824Z,4.78
2019-03-17T21:58:08.077Z,10.15
2019-03-17T22:00:33.879Z,13.03
2019-03-17T22:03:03.075Z,7.62
2019-03-17T22:05:31.784Z,7.62
2019-03-17T22:08:00.348Z,8.13
2019-03-17T22:10:29.196Z,6.37
2019-03-17T22:12:57.780Z,8.15
2019-03-17T22:15:26.453Z,7.42
2019-03-17T22:17:55.066Z,7.75
2019-03-17T22:20:23.912Z,6.28
2019-03-17T22:22:52.576Z,4.62
2019-03-17T22:25:21.136Z,8.30
2019-03-17T22:27:49.714Z,5.50
2019-03-17T22:30:18.399Z,7.72
2019-03-17T22:32:47.173Z,8.48
2019-03-17T22:35:15.940Z,5.22
2019-03-17T22:37:44.698Z,10.05
2019-03-17T22:40:13.408Z,7.80
2019-03-17T22:42:42.144Z,4.97
2019-03-17T22:45:10.904Z,4.83
2019-03-17T22:47:39.626Z,9.15
2019-03-17T22:50:09.123Z,7.90
2019-03-17T22:52:37.700Z,7.62
2019-03-17T22:55:07.194Z,9.28
2019-03-17T22:57:35.915Z,7.00
2019-03-17T23:00:07.910Z,6.05
2019-03-17T23:02:36.536Z,3.83
2019-03-17T23:05:05.401Z,9.80
2019-03-17T23:07:33.981Z,6.85
2019-03-17T23:10:03.450Z,10.72
2019-03-17T23:12:32.022Z,11.25
2019-03-17T23:15:00.583Z,9.70
2019-03-17T23:17:29.165Z,7.30
2019-03-17T23:19:57.972Z,7.22
2019-03-17T23:22:26.712Z,7.65
2019-03-17T23:24:55.271Z,7.72
2019-03-17T23:27:24.109Z,6.72
2019-03-17T23:29:52.687Z,6.67
2019-03-17T23:32:21.461Z,7.80
2019-03-17T23:34:50.169Z,10.72
2019-03-17T23:37:18.823Z,7.35
2019-03-17T23:39:47.375Z,7.37
2019-03-17T23:42:16.152Z,8.73
2019-03-17T23:44:49.281Z,6.20
2019-03-17T23:47:15.145Z,7.58
2019-03-17T23:49:43.862Z,7.92
2019-03-17T23:52:12.529Z,10.50
2019-03-17T23:54:41.091Z,6.92
2019-03-17T23:57:09.916Z,7.10
2019-03-17T23:59:38.696Z,8.98
